sensor_id;sensor_type;location;lat;lon;timestamp;P1;durP1;ratioP1;P2;durP2;ratioP2
74821;SDS011;63353;48.702;8.884;2023-05-07T00:01:48;6.40;;;5.80;;
74821;SDS011;63353;48.702;8.884;2023-05-07T00:04:20;6.43;;;5.73;;
74821;SDS011;63353;48.702;8.884;2023-05-07T00:06:48;6.37;;;5.77;;
74821;SDS011;63353;48.702;8.884;2023-05-07T00:09:17;6.83;;;5.73;;
74821;SDS011;63353;48.702;8.884;2023-05-07T00:11:48;6.70;;;5.93;;
74821;SDS011;63353;48.702;8.884;2023-05-07T00:14:14;7.17;;;6.13;;
74821;SDS011;63353;48.702;8.884;2023-05-07T00:16:39;7.97;;;6.60;;
74821;SDS011;63353;48.702;8.884;2023-05-07T00:19:14;7.70;;;6.50;;
74821;SDS011;63353;48.702;8.884;2023-05-07T00:21:45;6.77;;;6.17;;
74821;SDS011;63353;48.702;8.884;2023-05-07T00:24:11;8.87;;;6.20;;
74821;SDS011;63353;48.702;8.884;2023-05-07T00:26:37;6.90;;;6.20;;
74821;SDS011;63353;48.702;8.884;2023-05-07T00:29:03;7.40;;;6.67;;
74821;SDS011;63353;48.702;8.884;2023-05-07T00:31:28;7.93;;;6.70;;
74821;SDS011;63353;48.702;8.884;2023-05-07T00:33:54;7.93;;;6.93;;
74821;SDS011;63353;48.702;8.884;2023-05-07T00:36:25;8.07;;;7.00;;
74821;SDS011;63353;48.702;8.884;2023-05-07T00:38:51;7.77;;;6.90;;
74821;SDS011;63353;48.702;8.884;2023-05-07T00:41:17;7.80;;;6.27;;
74821;SDS011;63353;48.702;8.884;2023-05-07T00:43:46;7.83;;;6.80;;
74821;SDS011;63353;48.702;8.884;2023-05-07T00:46:12;8.20;;;6.40;;
74821;SDS011;63353;48.702;8.884;2023-05-07T00:48:38;7.77;;;6.77;;
74821;SDS011;63353;48.702;8.884;2023-05-07T00:51:04;8.03;;;6.83;;
74821;SDS011;63353;48.702;8.884;2023-05-07T00:53:30;7.23;;;6.40;;
74821;SDS011;63353;48.702;8.884;2023-05-07T00:55:56;7.63;;;6.30;;
74821;SDS011;63353;48.702;8.884;2023-05-07T00:58:31;9.87;;;6.43;;
74821;SDS011;63353;48.702;8.884;2023-05-07T01:00:58;9.23;;;6.83;;
74821;SDS011;63353;48.702;8.884;2023-05-07T01:03:28;7.80;;;6.53;;
74821;SDS011;63353;48.702;8.884;2023-05-07T01:05:54;7.37;;;6.63;;
74821;SDS011;63353;48.702;8.884;2023-05-07T01:08:22;11.47;;;6.53;;
74821;SDS011;63353;48.702;8.884;2023-05-07T01:13:42;8.97;;;6.57;;
74821;SDS011;63353;48.702;8.884;2023-05-07T01:16:17;8.23;;;7.13;;
74821;SDS011;63353;48.702;8.884;2023-05-07T01:18:45;9.47;;;6.83;;
74821;SDS011;63353;48.702;8.884;2023-05-07T01:21:13;7.70;;;6.93;;
74821;SDS011;63353;48.702;8.884;2023-05-07T01:23:48;7.63;;;6.80;;
74821;SDS011;63353;48.702;8.884;2023-05-07T01:26:17;9.20;;;7.13;;
74821;SDS011;63353;48.702;8.884;2023-05-07T01:28:44;8.57;;;6.80;;
74821;SDS011;63353;48.702;8.884;2023-05-07T01:31:19;8.17;;;6.77;;
74821;SDS011;63353;48.702;8.884;2023-05-07T01:33:45;9.03;;;6.77;;
74821;SDS011;63353;48.702;8.884;2023-05-07T01:36:14;8.33;;;6.90;;
74821;SDS011;63353;48.702;8.884;2023-05-07T01:38:40;8.90;;;7.30;;
74821;SDS011;63353;48.702;8.884;2023-05-07T01:41:07;7.33;;;6.63;;
74821;SDS011;63353;48.702;8.884;2023-05-07T01:43:32;8.63;;;6.97;;
74821;SDS011;63353;48.702;8.884;2023-05-07T01:45:58;8.47;;;7.27;;
74821;SDS011;63353;48.702;8.884;2023-05-07T01:48:26;8.03;;;7.23;;
74821;SDS011;63353;48.702;8.884;2023-05-07T01:50:58;8.03;;;7.23;;
74821;SDS011;63353;48.702;8.884;2023-05-07T01:53:26;9.93;;;8.17;;
74821;SDS011;63353;48.702;8.884;2023-05-07T01:55:55;8.57;;;7.77;;
74821;SDS011;63353;48.702;8.884;2023-05-07T01:58:24;8.70;;;7.73;;
74821;SDS011;63353;48.702;8.884;2023-05-07T02:00:50;9.67;;;8.57;;
74821;SDS011;63353;48.702;8.884;2023-05-07T02:03:21;9.17;;;8.27;;
74821;SDS011;63353;48.702;8.884;2023-05-07T02:05:59;9.10;;;8.20;;
74821;SDS011;63353;48.702;8.884;2023-05-07T02:08:24;9.23;;;8.10;;
74821;SDS011;63353;48.702;8.884;2023-05-07T02:10:53;9.20;;;8.30;;
74821;SDS011;63353;48.702;8.884;2023-05-07T02:13:19;8.87;;;7.50;;
74821;SDS011;63353;48.702;8.884;2023-05-07T02:15:49;8.87;;;7.97;;
74821;SDS011;63353;48.702;8.884;2023-05-07T02:18:15;9.40;;;8.23;;
74821;SDS011;63353;48.702;8.884;2023-05-07T02:20:42;8.23;;;7.23;;
74821;SDS011;63353;48.702;8.884;2023-05-07T02:23:11;8.67;;;7.63;;
74821;SDS011;63353;48.702;8.884;2023-05-07T02:25:36;10.00;;;7.73;;
74821;SDS011;63353;48.702;8.884;2023-05-07T02:28:05;8.97;;;7.57;;
74821;SDS011;63353;48.702;8.884;2023-05-07T02:30:40;8.47;;;7.67;;
74821;SDS011;63353;48.702;8.884;2023-05-07T02:33:05;10.13;;;7.70;;
74821;SDS011;63353;48.702;8.884;2023-05-07T02:35:33;8.73;;;7.30;;
74821;SDS011;63353;48.702;8.884;2023-05-07T02:37:58;8.87;;;7.37;;
74821;SDS011;63353;48.702;8.884;2023-05-07T02:40:24;8.10;;;6.97;;
74821;SDS011;63353;48.702;8.884;2023-05-07T02:42:58;9.20;;;7.50;;
74821;SDS011;63353;48.702;8.884;2023-05-07T02:45:24;8.70;;;7.10;;
74821;SDS011;63353;48.702;8.884;2023-05-07T02:47:50;9.23;;;6.90;;
74821;SDS011;63353;48.702;8.884;2023-05-07T02:50:18;7.87;;;7.07;;
74821;SDS011;63353;48.702;8.884;2023-05-07T02:52:44;8.00;;;7.17;;
74821;SDS011;63353;48.702;8.884;2023-05-07T02:55:10;7.90;;;7.10;;
74821;SDS011;63353;48.702;8.884;2023-05-07T02:57:35;7.87;;;6.67;;
74821;SDS011;63353;48.702;8.884;2023-05-07T03:00:09;8.03;;;6.70;;
74821;SDS011;63353;48.702;8.884;2023-05-07T03:02:36;10.13;;;6.70;;
74821;SDS011;63353;48.702;8.884;2023-05-07T03:05:02;7.73;;;6.87;;
74821;SDS011;63353;48.702;8.884;2023-05-07T03:07:31;8.60;;;7.03;;
74821;SDS011;63353;48.702;8.884;2023-05-07T03:09:57;7.90;;;7.10;;
74821;SDS011;63353;48.702;8.884;2023-05-07T03:12:23;8.83;;;7.23;;
74821;SDS011;63353;48.702;8.884;2023-05-07T03:14:51;9.27;;;7.03;;
74821;SDS011;63353;48.702;8.884;2023-05-07T03:17:17;7.97;;;7.27;;
74821;SDS011;63353;48.702;8.884;2023-05-07T03:19:46;8.87;;;7.43;;
74821;SDS011;63353;48.702;8.884;2023-05-07T03:22:12;9.93;;;7.27;;
74821;SDS011;63353;48.702;8.884;2023-05-07T03:24:42;10.30;;;7.13;;
74821;SDS011;63353;48.702;8.884;2023-05-07T03:27:09;10.80;;;6.97;;
74821;SDS011;63353;48.702;8.884;2023-05-07T03:29:34;10.23;;;7.27;;
74821;SDS011;63353;48.702;8.884;2023-05-07T03:32:00;7.93;;;6.97;;
74821;SDS011;63353;48.702;8.884;2023-05-07T03:34:26;8.20;;;6.80;;
74821;SDS011;63353;48.702;8.884;2023-05-07T03:36:54;9.00;;;7.57;;
74821;SDS011;63353;48.702;8.884;2023-05-07T03:39:20;9.00;;;6.77;;
74821;SDS011;63353;48.702;8.884;2023-05-07T03:41:52;8.43;;;7.53;;
74821;SDS011;63353;48.702;8.884;2023-05-07T03:44:18;8.93;;;6.83;;
74821;SDS011;63353;48.702;8.884;2023-05-07T03:46:44;9.70;;;7.70;;
74821;SDS011;63353;48.702;8.884;2023-05-07T03:49:09;9.73;;;7.30;;
74821;SDS011;63353;48.702;8.884;2023-05-07T03:51:35;9.70;;;7.63;;
74821;SDS011;63353;48.702;8.884;2023-05-07T03:54:01;8.13;;;7.33;;
74821;SDS011;63353;48.702;8.884;2023-05-07T03:56:26;8.23;;;7.00;;
74821;SDS011;63353;48.702;8.884;2023-05-07T03:58:52;8.00;;;6.93;;
74821;SDS011;63353;48.702;8.884;2023-05-07T04:01:19;10.73;;;8.00;;
74821;SDS011;63353;48.702;8.884;2023-05-07T04:03:44;9.37;;;7.33;;
74821;SDS011;63353;48.702;8.884;2023-05-07T04:06:10;10.30;;;7.87;;
74821;SDS011;63353;48.702;8.884;2023-05-07T04:08:37;10.83;;;9.73;;
74821;SDS011;63353;48.702;8.884;2023-05-07T04:11:02;8.83;;;8.00;;
74821;SDS011;63353;48.702;8.884;2023-05-07T04:13:29;8.70;;;7.80;;
74821;SDS011;63353;48.702;8.884;2023-05-07T04:15:55;11.13;;;7.50;;
74821;SDS011;63353;48.702;8.884;2023-05-07T04:18:21;8.33;;;7.40;;
74821;SDS011;63353;48.702;8.884;2023-05-07T04:20:55;7.97;;;7.17;;
74821;SDS011;63353;48.702;8.884;2023-05-07T04:23:21;8.70;;;7.23;;
74821;SDS011;63353;48.702;8.884;2023-05-07T04:25:47;8.53;;;7.63;;
74821;SDS011;63353;48.702;8.884;2023-05-07T04:28:12;7.83;;;7.03;;
74821;SDS011;63353;48.702;8.884;2023-05-07T04:30:39;8.73;;;6.77;;
74821;SDS011;63353;48.702;8.884;2023-05-07T04:33:06;8.30;;;7.23;;
74821;SDS011;63353;48.702;8.884;2023-05-07T04:35:32;8.63;;;6.93;;
74821;SDS011;63353;48.702;8.884;2023-05-07T04:37:57;8.67;;;7.73;;
74821;SDS011;63353;48.702;8.884;2023-05-07T04:40:23;9.20;;;7.00;;
74821;SDS011;63353;48.702;8.884;2023-05-07T04:42:49;8.13;;;7.33;;
74821;SDS011;63353;48.702;8.884;2023-05-07T04:45:16;8.17;;;7.30;;
74821;SDS011;63353;48.702;8.884;2023-05-07T04:47:42;9.37;;;7.40;;
74821;SDS011;63353;48.702;8.884;2023-05-07T04:50:07;8.57;;;6.70;;
74821;SDS011;63353;48.702;8.884;2023-05-07T04:52:33;9.00;;;7.27;;
74821;SDS011;63353;48.702;8.884;2023-05-07T04:54:59;8.40;;;7.50;;
74821;SDS011;63353;48.702;8.884;2023-05-07T04:57:26;9.47;;;7.50;;
74821;SDS011;63353;48.702;8.884;2023-05-07T04:59:52;11.33;;;7.73;;
74821;SDS011;63353;48.702;8.884;2023-05-07T05:02:18;9.30;;;7.60;;
74821;SDS011;63353;48.702;8.884;2023-05-07T05:04:44;10.17;;;7.50;;
74821;SDS011;63353;48.702;8.884;2023-05-07T05:07:10;8.77;;;7.60;;
74821;SDS011;63353;48.702;8.884;2023-05-07T05:09:36;10.27;;;8.30;;
74821;SDS011;63353;48.702;8.884;2023-05-07T05:12:02;8.37;;;7.47;;
74821;SDS011;63353;48.702;8.884;2023-05-07T05:14:29;8.93;;;7.57;;
74821;SDS011;63353;48.702;8.884;2023-05-07T05:16:55;12.27;;;7.63;;
74821;SDS011;63353;48.702;8.884;2023-05-07T05:19:20;8.73;;;6.80;;
74821;SDS011;63353;48.702;8.884;2023-05-07T05:21:46;8.40;;;6.83;;
74821;SDS011;63353;48.702;8.884;2023-05-07T05:24:12;7.73;;;7.00;;
74821;SDS011;63353;48.702;8.884;2023-05-07T05:26:37;8.00;;;7.20;;
74821;SDS011;63353;48.702;8.884;2023-05-07T05:29:03;9.53;;;7.13;;
74821;SDS011;63353;48.702;8.884;2023-05-07T05:31:29;7.80;;;6.93;;
74821;SDS011;63353;48.702;8.884;2023-05-07T05:33:54;8.13;;;7.00;;
74821;SDS011;63353;48.702;8.884;2023-05-07T05:36:20;8.27;;;6.90;;
74821;SDS011;63353;48.702;8.884;2023-05-07T05:38:46;8.03;;;7.20;;
74821;SDS011;63353;48.702;8.884;2023-05-07T05:41:11;8.43;;;7.37;;
74821;SDS011;63353;48.702;8.884;2023-05-07T05:43:37;8.13;;;6.30;;
74821;SDS011;63353;48.702;8.884;2023-05-07T05:46:03;7.93;;;6.33;;
74821;SDS011;63353;48.702;8.884;2023-05-07T05:48:29;7.70;;;7.00;;
74821;SDS011;63353;48.702;8.884;2023-05-07T05:50:56;8.07;;;6.90;;
74821;SDS011;63353;48.702;8.884;2023-05-07T05:53:22;7.10;;;5.87;;
74821;SDS011;63353;48.702;8.884;2023-05-07T05:55:48;8.10;;;6.80;;
74821;SDS011;63353;48.702;8.884;2023-05-07T05:58:14;8.47;;;6.10;;
74821;SDS011;63353;48.702;8.884;2023-05-07T06:00:40;6.80;;;6.10;;
74821;SDS011;63353;48.702;8.884;2023-05-07T06:03:06;7.83;;;5.93;;
74821;SDS011;63353;48.702;8.884;2023-05-07T06:05:31;6.70;;;5.73;;
74821;SDS011;63353;48.702;8.884;2023-05-07T06:08:00;6.93;;;5.87;;
74821;SDS011;63353;48.702;8.884;2023-05-07T06:10:26;6.23;;;5.73;;
74821;SDS011;63353;48.702;8.884;2023-05-07T06:12:52;6.53;;;5.83;;
74821;SDS011;63353;48.702;8.884;2023-05-07T06:15:17;6.23;;;5.63;;
74821;SDS011;63353;48.702;8.884;2023-05-07T06:17:44;7.30;;;5.90;;
74821;SDS011;63353;48.702;8.884;2023-05-07T06:20:10;6.57;;;5.97;;
74821;SDS011;63353;48.702;8.884;2023-05-07T06:22:38;6.47;;;5.83;;
74821;SDS011;63353;48.702;8.884;2023-05-07T06:25:04;7.57;;;6.23;;
74821;SDS011;63353;48.702;8.884;2023-05-07T06:27:30;6.20;;;5.60;;
74821;SDS011;63353;48.702;8.884;2023-05-07T06:29:56;6.13;;;5.57;;
74821;SDS011;63353;48.702;8.884;2023-05-07T06:32:22;6.50;;;5.90;;
74821;SDS011;63353;48.702;8.884;2023-05-07T06:34:51;7.53;;;5.73;;
74821;SDS011;63353;48.702;8.884;2023-05-07T06:37:19;6.03;;;5.33;;
74821;SDS011;63353;48.702;8.884;2023-05-07T06:39:48;5.77;;;5.27;;
74821;SDS011;63353;48.702;8.884;2023-05-07T06:42:13;6.20;;;5.60;;
74821;SDS011;63353;48.702;8.884;2023-05-07T06:44:45;6.33;;;5.60;;
74821;SDS011;63353;48.702;8.884;2023-05-07T06:47:13;6.17;;;5.53;;
74821;SDS011;63353;48.702;8.884;2023-05-07T06:49:42;6.17;;;5.57;;
74821;SDS011;63353;48.702;8.884;2023-05-07T06:52:10;6.57;;;5.90;;
74821;SDS011;63353;48.702;8.884;2023-05-07T06:54:36;6.30;;;5.40;;
74821;SDS011;63353;48.702;8.884;2023-05-07T06:57:05;6.30;;;5.80;;
74821;SDS011;63353;48.702;8.884;2023-05-07T06:59:30;6.43;;;5.73;;
74821;SDS011;63353;48.702;8.884;2023-05-07T07:01:56;6.73;;;6.13;;
74821;SDS011;63353;48.702;8.884;2023-05-07T07:04:25;6.93;;;6.23;;
74821;SDS011;63353;48.702;8.884;2023-05-07T07:06:53;6.30;;;5.80;;
74821;SDS011;63353;48.702;8.884;2023-05-07T07:09:19;6.40;;;5.80;;
74821;SDS011;63353;48.702;8.884;2023-05-07T07:11:48;7.80;;;6.00;;
74821;SDS011;63353;48.702;8.884;2023-05-07T07:14:13;5.87;;;5.37;;
74821;SDS011;63353;48.702;8.884;2023-05-07T07:16:42;5.73;;;5.30;;
74821;SDS011;63353;48.702;8.884;2023-05-07T07:19:08;5.80;;;5.20;;
74821;SDS011;63353;48.702;8.884;2023-05-07T07:21:33;5.70;;;5.20;;
74821;SDS011;63353;48.702;8.884;2023-05-07T07:23:59;5.80;;;5.30;;
74821;SDS011;63353;48.702;8.884;2023-05-07T07:26:25;6.73;;;6.03;;
74821;SDS011;63353;48.702;8.884;2023-05-07T07:28:51;6.33;;;5.83;;
74821;SDS011;63353;48.702;8.884;2023-05-07T07:31:16;6.40;;;5.33;;
74821;SDS011;63353;48.702;8.884;2023-05-07T07:33:42;6.40;;;5.73;;
74821;SDS011;63353;48.702;8.884;2023-05-07T07:36:08;5.83;;;5.33;;
74821;SDS011;63353;48.702;8.884;2023-05-07T07:38:33;5.73;;;5.30;;
74821;SDS011;63353;48.702;8.884;2023-05-07T07:41:00;5.97;;;5.37;;
74821;SDS011;63353;48.702;8.884;2023-05-07T07:43:26;6.00;;;5.50;;
74821;SDS011;63353;48.702;8.884;2023-05-07T07:45:52;5.70;;;5.20;;
74821;SDS011;63353;48.702;8.884;2023-05-07T07:48:18;5.70;;;5.23;;
74821;SDS011;63353;48.702;8.884;2023-05-07T07:50:44;5.73;;;5.23;;
74821;SDS011;63353;48.702;8.884;2023-05-07T07:53:13;5.60;;;5.10;;
74821;SDS011;63353;48.702;8.884;2023-05-07T07:55:39;5.03;;;4.63;;
74821;SDS011;63353;48.702;8.884;2023-05-07T07:58:05;5.50;;;4.90;;
74821;SDS011;63353;48.702;8.884;2023-05-07T08:00:30;5.70;;;5.20;;
74821;SDS011;63353;48.702;8.884;2023-05-07T08:02:56;5.00;;;4.70;;
74821;SDS011;63353;48.702;8.884;2023-05-07T08:05:25;5.83;;;5.30;;
74821;SDS011;63353;48.702;8.884;2023-05-07T08:07:51;5.73;;;5.23;;
74821;SDS011;63353;48.702;8.884;2023-05-07T08:10:18;5.33;;;4.87;;
74821;SDS011;63353;48.702;8.884;2023-05-07T08:12:46;5.43;;;5.00;;
74821;SDS011;63353;48.702;8.884;2023-05-07T08:15:13;5.53;;;5.03;;
74821;SDS011;63353;48.702;8.884;2023-05-07T08:17:39;5.67;;;5.17;;
74821;SDS011;63353;48.702;8.884;2023-05-07T08:20:05;6.73;;;5.13;;
74821;SDS011;63353;48.702;8.884;2023-05-07T08:22:31;5.57;;;4.93;;
74821;SDS011;63353;48.702;8.884;2023-05-07T08:24:57;5.20;;;4.70;;
74821;SDS011;63353;48.702;8.884;2023-05-07T08:27:23;5.07;;;4.67;;
74821;SDS011;63353;48.702;8.884;2023-05-07T08:29:48;5.30;;;4.90;;
74821;SDS011;63353;48.702;8.884;2023-05-07T08:32:17;4.90;;;4.50;;
74821;SDS011;63353;48.702;8.884;2023-05-07T08:34:43;4.90;;;4.47;;
74821;SDS011;63353;48.702;8.884;2023-05-07T08:37:09;4.90;;;4.50;;
74821;SDS011;63353;48.702;8.884;2023-05-07T08:39:37;4.83;;;4.43;;
74821;SDS011;63353;48.702;8.884;2023-05-07T08:42:03;4.60;;;4.20;;
74821;SDS011;63353;48.702;8.884;2023-05-07T08:44:35;4.30;;;4.00;;
74821;SDS011;63353;48.702;8.884;2023-05-07T08:47:03;4.70;;;4.30;;
74821;SDS011;63353;48.702;8.884;2023-05-07T08:49:31;4.90;;;4.37;;
74821;SDS011;63353;48.702;8.884;2023-05-07T08:52:01;5.07;;;4.43;;
74821;SDS011;63353;48.702;8.884;2023-05-07T08:54:27;4.77;;;4.40;;
74821;SDS011;63353;48.702;8.884;2023-05-07T08:56:54;4.63;;;4.33;;
74821;SDS011;63353;48.702;8.884;2023-05-07T08:59:20;5.13;;;4.30;;
74821;SDS011;63353;48.702;8.884;2023-05-07T09:01:45;5.23;;;4.43;;
74821;SDS011;63353;48.702;8.884;2023-05-07T09:04:11;4.80;;;4.40;;
74821;SDS011;63353;48.702;8.884;2023-05-07T09:06:38;4.63;;;4.23;;
74821;SDS011;63353;48.702;8.884;2023-05-07T09:09:06;4.80;;;4.47;;
74821;SDS011;63353;48.702;8.884;2023-05-07T09:11:32;4.60;;;4.20;;
74821;SDS011;63353;48.702;8.884;2023-05-07T09:13:58;4.83;;;4.40;;
74821;SDS011;63353;48.702;8.884;2023-05-07T09:16:26;4.87;;;4.33;;
74821;SDS011;63353;48.702;8.884;2023-05-07T09:18:54;4.55;;;4.25;;
74821;SDS011;63353;48.702;8.884;2023-05-07T09:21:20;4.50;;;4.20;;
74821;SDS011;63353;48.702;8.884;2023-05-07T09:23:48;5.07;;;4.68;;
74821;SDS011;63353;48.702;8.884;2023-05-07T09:26:15;4.55;;;4.15;;
74821;SDS011;63353;48.702;8.884;2023-05-07T09:28:41;5.10;;;4.70;;
74821;SDS011;63353;48.702;8.884;2023-05-07T09:31:11;5.15;;;4.65;;
74821;SDS011;63353;48.702;8.884;2023-05-07T09:33:38;5.07;;;4.60;;
74821;SDS011;63353;48.702;8.884;2023-05-07T09:36:04;4.93;;;4.53;;
74821;SDS011;63353;48.702;8.884;2023-05-07T09:38:32;5.05;;;4.55;;
74821;SDS011;63353;48.702;8.884;2023-05-07T09:41:02;4.65;;;4.25;;
74821;SDS011;63353;48.702;8.884;2023-05-07T09:43:36;5.70;;;4.75;;
74821;SDS011;63353;48.702;8.884;2023-05-07T09:46:03;5.30;;;4.80;;
74821;SDS011;63353;48.702;8.884;2023-05-07T09:48:31;5.05;;;4.50;;
74821;SDS011;63353;48.702;8.884;2023-05-07T09:51:01;4.70;;;4.30;;
74821;SDS011;63353;48.702;8.884;2023-05-07T09:53:30;4.90;;;4.40;;
74821;SDS011;63353;48.702;8.884;2023-05-07T09:55:56;5.07;;;4.40;;
74821;SDS011;63353;48.702;8.884;2023-05-07T09:58:26;4.60;;;4.20;;
74821;SDS011;63353;48.702;8.884;2023-05-07T10:00:52;4.68;;;4.28;;
74821;SDS011;63353;48.702;8.884;2023-05-07T10:03:21;4.68;;;4.38;;
74821;SDS011;63353;48.702;8.884;2023-05-07T10:05:49;4.80;;;4.40;;
74821;SDS011;63353;48.702;8.884;2023-05-07T10:08:16;4.55;;;4.25;;
74821;SDS011;63353;48.702;8.884;2023-05-07T10:10:42;4.93;;;4.63;;
74821;SDS011;63353;48.702;8.884;2023-05-07T10:13:08;5.25;;;4.30;;
74821;SDS011;63353;48.702;8.884;2023-05-07T10:15:36;4.97;;;4.65;;
74821;SDS011;63353;48.702;8.884;2023-05-07T10:18:02;5.10;;;4.65;;
74821;SDS011;63353;48.702;8.884;2023-05-07T10:20:29;5.05;;;4.68;;
74821;SDS011;63353;48.702;8.884;2023-05-07T10:22:56;5.05;;;4.50;;
74821;SDS011;63353;48.702;8.884;2023-05-07T10:25:32;4.82;;;4.53;;
74821;SDS011;63353;48.702;8.884;2023-05-07T10:28:00;4.93;;;4.53;;
74821;SDS011;63353;48.702;8.884;2023-05-07T10:33:06;5.40;;;4.60;;
74821;SDS011;63353;48.702;8.884;2023-05-07T10:35:40;4.45;;;4.15;;
74821;SDS011;63353;48.702;8.884;2023-05-07T10:38:08;4.80;;;4.40;;
74821;SDS011;63353;48.702;8.884;2023-05-07T10:40:34;4.75;;;4.35;;
74821;SDS011;63353;48.702;8.884;2023-05-07T10:43:00;4.80;;;4.40;;
74821;SDS011;63353;48.702;8.884;2023-05-07T10:45:29;4.60;;;4.20;;
74821;SDS011;63353;48.702;8.884;2023-05-07T10:48:05;4.60;;;4.20;;
74821;SDS011;63353;48.702;8.884;2023-05-07T10:50:35;4.40;;;4.00;;
74821;SDS011;63353;48.702;8.884;2023-05-07T10:55:48;4.40;;;4.00;;
74821;SDS011;63353;48.702;8.884;2023-05-07T10:58:34;4.32;;;4.03;;
74821;SDS011;63353;48.702;8.884;2023-05-07T11:01:02;4.63;;;4.22;;
74821;SDS011;63353;48.702;8.884;2023-05-07T11:03:28;5.55;;;4.47;;
74821;SDS011;63353;48.702;8.884;2023-05-07T11:06:14;4.68;;;4.28;;
74821;SDS011;63353;48.702;8.884;2023-05-07T11:08:56;4.50;;;4.20;;
74821;SDS011;63353;48.702;8.884;2023-05-07T11:17:16;4.68;;;4.28;;
74821;SDS011;63353;48.702;8.884;2023-05-07T11:19:51;4.70;;;4.30;;
74821;SDS011;63353;48.702;8.884;2023-05-07T11:25:00;5.07;;;4.05;;
74821;SDS011;63353;48.702;8.884;2023-05-07T11:27:27;4.97;;;4.57;;
74821;SDS011;63353;48.702;8.884;2023-05-07T11:29:54;4.97;;;4.47;;
74821;SDS011;63353;48.702;8.884;2023-05-07T11:32:29;4.67;;;4.30;;
74821;SDS011;63353;48.702;8.884;2023-05-07T11:34:56;5.00;;;4.60;;
74821;SDS011;63353;48.702;8.884;2023-05-07T11:37:26;6.70;;;6.10;;
74821;SDS011;63353;48.702;8.884;2023-05-07T11:40:04;7.57;;;5.63;;
74821;SDS011;63353;48.702;8.884;2023-05-07T11:42:32;6.30;;;5.70;;
74821;SDS011;63353;48.702;8.884;2023-05-07T11:44:59;7.97;;;7.00;;
74821;SDS011;63353;48.702;8.884;2023-05-07T11:47:26;7.67;;;5.80;;
74821;SDS011;63353;48.702;8.884;2023-05-07T11:49:54;4.67;;;4.23;;
74821;SDS011;63353;48.702;8.884;2023-05-07T11:52:21;5.47;;;4.43;;
74821;SDS011;63353;48.702;8.884;2023-05-07T11:54:57;7.40;;;6.00;;
74821;SDS011;63353;48.702;8.884;2023-05-07T11:57:24;7.27;;;5.50;;
74821;SDS011;63353;48.702;8.884;2023-05-07T11:59:54;7.43;;;5.10;;
74821;SDS011;63353;48.702;8.884;2023-05-07T12:02:21;5.00;;;4.50;;
74821;SDS011;63353;48.702;8.884;2023-05-07T12:04:47;4.90;;;4.50;;
74821;SDS011;63353;48.702;8.884;2023-05-07T12:07:13;8.43;;;6.57;;
74821;SDS011;63353;48.702;8.884;2023-05-07T12:09:40;7.77;;;7.00;;
74821;SDS011;63353;48.702;8.884;2023-05-07T12:12:12;9.70;;;8.67;;
74821;SDS011;63353;48.702;8.884;2023-05-07T12:14:40;9.00;;;8.20;;
74821;SDS011;63353;48.702;8.884;2023-05-07T12:17:08;10.40;;;8.20;;
74821;SDS011;63353;48.702;8.884;2023-05-07T12:19:35;9.57;;;8.67;;
74821;SDS011;63353;48.702;8.884;2023-05-07T12:22:04;9.70;;;8.77;;
74821;SDS011;63353;48.702;8.884;2023-05-07T12:24:42;10.90;;;9.67;;
74821;SDS011;63353;48.702;8.884;2023-05-07T12:27:08;11.17;;;9.20;;
74821;SDS011;63353;48.702;8.884;2023-05-07T12:29:34;10.83;;;9.73;;
74821;SDS011;63353;48.702;8.884;2023-05-07T12:32:00;11.80;;;9.33;;
74821;SDS011;63353;48.702;8.884;2023-05-07T12:34:26;11.67;;;9.20;;
74821;SDS011;63353;48.702;8.884;2023-05-07T12:36:57;10.30;;;9.30;;
74821;SDS011;63353;48.702;8.884;2023-05-07T12:39:27;10.40;;;9.37;;
74821;SDS011;63353;48.702;8.884;2023-05-07T12:42:01;10.80;;;9.80;;
74821;SDS011;63353;48.702;8.884;2023-05-07T12:44:34;10.20;;;9.20;;
74821;SDS011;63353;48.702;8.884;2023-05-07T12:47:01;12.77;;;9.83;;
74821;SDS011;63353;48.702;8.884;2023-05-07T12:49:27;9.77;;;8.73;;
74821;SDS011;63353;48.702;8.884;2023-05-07T12:51:53;11.73;;;9.83;;
74821;SDS011;63353;48.702;8.884;2023-05-07T12:54:30;10.33;;;9.43;;
74821;SDS011;63353;48.702;8.884;2023-05-07T12:57:01;11.77;;;9.87;;
74821;SDS011;63353;48.702;8.884;2023-05-07T12:59:32;10.70;;;9.60;;
74821;SDS011;63353;48.702;8.884;2023-05-07T13:02:07;9.97;;;8.97;;
74821;SDS011;63353;48.702;8.884;2023-05-07T13:04:39;10.23;;;9.23;;
74821;SDS011;63353;48.702;8.884;2023-05-07T13:07:05;8.30;;;7.60;;
74821;SDS011;63353;48.702;8.884;2023-05-07T13:09:31;7.77;;;7.00;;
74821;SDS011;63353;48.702;8.884;2023-05-07T13:11:59;6.07;;;5.57;;
74821;SDS011;63353;48.702;8.884;2023-05-07T13:14:26;7.27;;;6.57;;
74821;SDS011;63353;48.702;8.884;2023-05-07T13:16:52;7.37;;;6.77;;
74821;SDS011;63353;48.702;8.884;2023-05-07T13:19:20;10.00;;;9.00;;
74821;SDS011;63353;48.702;8.884;2023-05-07T13:21:49;8.97;;;7.97;;
74821;SDS011;63353;48.702;8.884;2023-05-07T13:24:20;10.07;;;9.17;;
74821;SDS011;63353;48.702;8.884;2023-05-07T13:26:46;5.90;;;5.30;;
74821;SDS011;63353;48.702;8.884;2023-05-07T13:29:12;5.50;;;5.00;;
74821;SDS011;63353;48.702;8.884;2023-05-07T13:31:40;6.17;;;5.57;;
74821;SDS011;63353;48.702;8.884;2023-05-07T13:34:08;8.67;;;7.67;;
74821;SDS011;63353;48.702;8.884;2023-05-07T13:36:35;8.20;;;5.80;;
74821;SDS011;63353;48.702;8.884;2023-05-07T13:39:04;5.97;;;5.47;;
74821;SDS011;63353;48.702;8.884;2023-05-07T13:41:31;6.17;;;5.33;;
74821;SDS011;63353;48.702;8.884;2023-05-07T13:43:59;7.10;;;5.40;;
74821;SDS011;63353;48.702;8.884;2023-05-07T13:46:25;7.90;;;6.17;;
74821;SDS011;63353;48.702;8.884;2023-05-07T13:48:54;6.67;;;6.07;;
74821;SDS011;63353;48.702;8.884;2023-05-07T13:51:20;7.43;;;5.77;;
74821;SDS011;63353;48.702;8.884;2023-05-07T13:53:46;7.80;;;7.00;;
74821;SDS011;63353;48.702;8.884;2023-05-07T13:56:15;9.53;;;6.93;;
74821;SDS011;63353;48.702;8.884;2023-05-07T13:58:55;8.97;;;6.53;;
74821;SDS011;63353;48.702;8.884;2023-05-07T14:01:21;8.70;;;7.30;;
74821;SDS011;63353;48.702;8.884;2023-05-07T14:03:47;7.47;;;5.83;;
74821;SDS011;63353;48.702;8.884;2023-05-07T14:06:12;8.67;;;6.50;;
74821;SDS011;63353;48.702;8.884;2023-05-07T14:08:41;7.33;;;6.57;;
74821;SDS011;63353;48.702;8.884;2023-05-07T14:11:17;6.33;;;5.57;;
74821;SDS011;63353;48.702;8.884;2023-05-07T14:13:46;8.73;;;7.53;;
74821;SDS011;63353;48.702;8.884;2023-05-07T14:16:11;11.57;;;9.07;;
74821;SDS011;63353;48.702;8.884;2023-05-07T14:18:37;6.80;;;6.10;;
74821;SDS011;63353;48.702;8.884;2023-05-07T14:21:04;6.57;;;5.93;;
74821;SDS011;63353;48.702;8.884;2023-05-07T14:23:31;8.20;;;7.23;;
74821;SDS011;63353;48.702;8.884;2023-05-07T14:26:02;10.37;;;8.57;;
74821;SDS011;63353;48.702;8.884;2023-05-07T14:28:28;10.13;;;9.07;;
74821;SDS011;63353;48.702;8.884;2023-05-07T14:30:57;8.70;;;7.30;;
74821;SDS011;63353;48.702;8.884;2023-05-07T14:33:23;8.63;;;7.67;;
74821;SDS011;63353;48.702;8.884;2023-05-07T14:35:52;7.60;;;6.40;;
74821;SDS011;63353;48.702;8.884;2023-05-07T14:38:23;7.57;;;6.77;;
74821;SDS011;63353;48.702;8.884;2023-05-07T14:40:48;7.13;;;6.00;;
74821;SDS011;63353;48.702;8.884;2023-05-07T14:43:23;5.57;;;5.03;;
74821;SDS011;63353;48.702;8.884;2023-05-07T14:45:49;6.47;;;5.87;;
74821;SDS011;63353;48.702;8.884;2023-05-07T14:48:15;9.37;;;8.47;;
74821;SDS011;63353;48.702;8.884;2023-05-07T14:50:46;12.93;;;9.73;;
74821;SDS011;63353;48.702;8.884;2023-05-07T14:53:12;11.57;;;8.27;;
74821;SDS011;63353;48.702;8.884;2023-05-07T14:55:41;6.47;;;5.77;;
74821;SDS011;63353;48.702;8.884;2023-05-07T14:58:07;6.23;;;5.30;;
74821;SDS011;63353;48.702;8.884;2023-05-07T15:00:33;6.33;;;4.97;;
74821;SDS011;63353;48.702;8.884;2023-05-07T15:03:03;5.30;;;4.83;;
74821;SDS011;63353;48.702;8.884;2023-05-07T15:05:31;7.53;;;6.83;;